sensor_id;sensor_type;location;lat;lon;timestamp;P1;durP1;ratioP1;P2;durP2;ratioP2
54193;SDS011;40102;50.906;6.972;2023-12-07T00:01:55;13.43;;;7.72;;
54193;SDS011;40102;50.906;6.972;2023-12-07T00:04:21;14.10;;;7.90;;
54193;SDS011;40102;50.906;6.972;2023-12-07T00:06:47;14.90;;;7.75;;
54193;SDS011;40102;50.906;6.972;2023-12-07T00:09:12;12.35;;;6.78;;
54193;SDS011;40102;50.906;6.972;2023-12-07T00:11:38;11.27;;;6.43;;
54193;SDS011;40102;50.906;6.972;2023-12-07T00:14:03;14.43;;;6.90;;
54193;SDS011;40102;50.906;6.972;2023-12-07T00:16:29;16.70;;;8.40;;
54193;SDS011;40102;50.906;6.972;2023-12-07T00:18:54;16.15;;;8.57;;
54193;SDS011;40102;50.906;6.972;2023-12-07T00:21:20;17.35;;;8.55;;
54193;SDS011;40102;50.906;6.972;2023-12-07T00:23:45;16.98;;;8.60;;
54193;SDS011;40102;50.906;6.972;2023-12-07T00:26:10;14.15;;;7.45;;
54193;SDS011;40102;50.906;6.972;2023-12-07T00:28:36;12.52;;;6.47;;
54193;SDS011;40102;50.906;6.972;2023-12-07T00:31:01;13.18;;;7.40;;
54193;SDS011;40102;50.906;6.972;2023-12-07T00:33:27;14.38;;;7.47;;
54193;SDS011;40102;50.906;6.972;2023-12-07T00:35:52;12.68;;;6.82;;
54193;SDS011;40102;50.906;6.972;2023-12-07T00:38:17;13.27;;;7.18;;
54193;SDS011;40102;50.906;6.972;2023-12-07T00:40:43;12.52;;;6.50;;
54193;SDS011;40102;50.906;6.972;2023-12-07T00:43:09;10.60;;;6.28;;
54193;SDS011;40102;50.906;6.972;2023-12-07T00:45:34;13.68;;;7.03;;
54193;SDS011;40102;50.906;6.972;2023-12-07T00:47:59;13.38;;;7.45;;
54193;SDS011;40102;50.906;6.972;2023-12-07T00:50:25;15.05;;;6.63;;
54193;SDS011;40102;50.906;6.972;2023-12-07T00:52:50;11.27;;;6.50;;
54193;SDS011;40102;50.906;6.972;2023-12-07T00:55:16;12.30;;;6.63;;
54193;SDS011;40102;50.906;6.972;2023-12-07T00:57:41;11.63;;;6.22;;
54193;SDS011;40102;50.906;6.972;2023-12-07T01:00:10;12.52;;;6.55;;
54193;SDS011;40102;50.906;6.972;2023-12-07T01:02:35;11.07;;;5.93;;
54193;SDS011;40102;50.906;6.972;2023-12-07T01:05:01;11.10;;;6.47;;
54193;SDS011;40102;50.906;6.972;2023-12-07T01:07:26;13.13;;;6.88;;
54193;SDS011;40102;50.906;6.972;2023-12-07T01:09:52;10.75;;;6.10;;
54193;SDS011;40102;50.906;6.972;2023-12-07T01:12:17;11.20;;;6.28;;
54193;SDS011;40102;50.906;6.972;2023-12-07T01:14:43;11.13;;;6.20;;
54193;SDS011;40102;50.906;6.972;2023-12-07T01:17:08;11.90;;;6.00;;
54193;SDS011;40102;50.906;6.972;2023-12-07T01:19:34;11.85;;;6.28;;
54193;SDS011;40102;50.906;6.972;2023-12-07T01:21:59;10.27;;;5.72;;
54193;SDS011;40102;50.906;6.972;2023-12-07T01:24:25;10.50;;;5.32;;
54193;SDS011;40102;50.906;6.972;2023-12-07T01:26:50;9.70;;;5.90;;
54193;SDS011;40102;50.906;6.972;2023-12-07T01:29:15;11.90;;;6.65;;
54193;SDS011;40102;50.906;6.972;2023-12-07T01:31:42;10.27;;;5.82;;
54193;SDS011;40102;50.906;6.972;2023-12-07T01:34:08;10.40;;;6.07;;
54193;SDS011;40102;50.906;6.972;2023-12-07T01:36:34;10.63;;;5.80;;
54193;SDS011;40102;50.906;6.972;2023-12-07T01:38:59;12.20;;;6.40;;
54193;SDS011;40102;50.906;6.972;2023-12-07T01:41:25;14.80;;;7.28;;
54193;SDS011;40102;50.906;6.972;2023-12-07T01:43:50;12.05;;;7.15;;
54193;SDS011;40102;50.906;6.972;2023-12-07T01:46:16;13.43;;;6.80;;
54193;SDS011;40102;50.906;6.972;2023-12-07T01:48:42;12.90;;;6.70;;
54193;SDS011;40102;50.906;6.972;2023-12-07T01:51:08;12.27;;;6.68;;
54193;SDS011;40102;50.906;6.972;2023-12-07T01:53:36;10.90;;;5.93;;
54193;SDS011;40102;50.906;6.972;2023-12-07T01:56:04;12.10;;;6.82;;
54193;SDS011;40102;50.906;6.972;2023-12-07T01:58:29;13.07;;;6.15;;
54193;SDS011;40102;50.906;6.972;2023-12-07T02:00:55;13.27;;;7.43;;
54193;SDS011;40102;50.906;6.972;2023-12-07T02:03:21;13.07;;;6.95;;
54193;SDS011;40102;50.906;6.972;2023-12-07T02:05:47;11.25;;;6.60;;
54193;SDS011;40102;50.906;6.972;2023-12-07T02:08:16;10.95;;;6.53;;
54193;SDS011;40102;50.906;6.972;2023-12-07T02:10:41;11.70;;;6.60;;
54193;SDS011;40102;50.906;6.972;2023-12-07T02:13:06;12.30;;;6.93;;
54193;SDS011;40102;50.906;6.972;2023-12-07T02:15:33;16.48;;;8.10;;
54193;SDS011;40102;50.906;6.972;2023-12-07T02:18:16;13.70;;;7.18;;
54193;SDS011;40102;50.906;6.972;2023-12-07T02:20:58;15.43;;;7.60;;
54193;SDS011;40102;50.906;6.972;2023-12-07T02:23:29;14.18;;;7.10;;
54193;SDS011;40102;50.906;6.972;2023-12-07T02:25:57;13.55;;;7.53;;
54193;SDS011;40102;50.906;6.972;2023-12-07T02:28:28;14.45;;;7.20;;
54193;SDS011;40102;50.906;6.972;2023-12-07T02:30:53;12.77;;;7.05;;
54193;SDS011;40102;50.906;6.972;2023-12-07T02:33:19;12.75;;;6.50;;
54193;SDS011;40102;50.906;6.972;2023-12-07T02:35:44;12.45;;;6.50;;
54193;SDS011;40102;50.906;6.972;2023-12-07T02:38:10;12.35;;;6.13;;
54193;SDS011;40102;50.906;6.972;2023-12-07T02:40:36;10.48;;;6.07;;
54193;SDS011;40102;50.906;6.972;2023-12-07T02:43:03;10.60;;;5.90;;
54193;SDS011;40102;50.906;6.972;2023-12-07T02:45:29;12.23;;;6.32;;
54193;SDS011;40102;50.906;6.972;2023-12-07T02:47:56;12.85;;;6.05;;
54193;SDS011;40102;50.906;6.972;2023-12-07T02:50:23;10.70;;;5.85;;
54193;SDS011;40102;50.906;6.972;2023-12-07T02:52:48;11.35;;;6.43;;
54193;SDS011;40102;50.906;6.972;2023-12-07T02:55:13;11.32;;;5.88;;
54193;SDS011;40102;50.906;6.972;2023-12-07T02:57:39;11.77;;;5.90;;
54193;SDS011;40102;50.906;6.972;2023-12-07T03:00:04;12.77;;;6.10;;
54193;SDS011;40102;50.906;6.972;2023-12-07T03:02:35;10.75;;;5.65;;
54193;SDS011;40102;50.906;6.972;2023-12-07T03:05:04;10.00;;;5.88;;
54193;SDS011;40102;50.906;6.972;2023-12-07T03:07:31;13.02;;;6.95;;
54193;SDS011;40102;50.906;6.972;2023-12-07T03:09:57;12.38;;;6.88;;
54193;SDS011;40102;50.906;6.972;2023-12-07T03:12:22;12.73;;;6.22;;
54193;SDS011;40102;50.906;6.972;2023-12-07T03:14:48;12.88;;;6.70;;
54193;SDS011;40102;50.906;6.972;2023-12-07T03:17:14;15.02;;;7.47;;
54193;SDS011;40102;50.906;6.972;2023-12-07T03:19:39;14.15;;;7.72;;
54193;SDS011;40102;50.906;6.972;2023-12-07T03:22:06;13.45;;;7.38;;
54193;SDS011;40102;50.906;6.972;2023-12-07T03:24:32;15.85;;;8.00;;
54193;SDS011;40102;50.906;6.972;2023-12-07T03:26:59;15.65;;;7.97;;
54193;SDS011;40102;50.906;6.972;2023-12-07T03:29:24;16.40;;;8.50;;
54193;SDS011;40102;50.906;6.972;2023-12-07T03:31:49;14.88;;;7.85;;
54193;SDS011;40102;50.906;6.972;2023-12-07T03:34:15;14.77;;;8.25;;
54193;SDS011;40102;50.906;6.972;2023-12-07T03:36:42;16.58;;;8.77;;
54193;SDS011;40102;50.906;6.972;2023-12-07T03:39:14;16.85;;;8.38;;
54193;SDS011;40102;50.906;6.972;2023-12-07T03:41:43;17.60;;;8.73;;
54193;SDS011;40102;50.906;6.972;2023-12-07T03:44:12;18.00;;;8.55;;
54193;SDS011;40102;50.906;6.972;2023-12-07T03:46:37;17.30;;;8.30;;
54193;SDS011;40102;50.906;6.972;2023-12-07T03:49:02;14.95;;;8.25;;
54193;SDS011;40102;50.906;6.972;2023-12-07T03:51:28;17.02;;;8.60;;
54193;SDS011;40102;50.906;6.972;2023-12-07T03:53:54;15.25;;;8.35;;
54193;SDS011;40102;50.906;6.972;2023-12-07T03:56:26;15.50;;;8.25;;
54193;SDS011;40102;50.906;6.972;2023-12-07T03:58:53;16.73;;;8.63;;
54193;SDS011;40102;50.906;6.972;2023-12-07T04:01:21;18.40;;;8.60;;
54193;SDS011;40102;50.906;6.972;2023-12-07T04:03:50;21.05;;;8.95;;
54193;SDS011;40102;50.906;6.972;2023-12-07T04:06:16;16.55;;;8.25;;
54193;SDS011;40102;50.906;6.972;2023-12-07T04:08:43;14.43;;;7.80;;
54193;SDS011;40102;50.906;6.972;2023-12-07T04:11:09;17.38;;;8.45;;
54193;SDS011;40102;50.906;6.972;2023-12-07T04:13:34;16.35;;;7.93;;
54193;SDS011;40102;50.906;6.972;2023-12-07T04:16:00;20.85;;;8.82;;
54193;SDS011;40102;50.906;6.972;2023-12-07T04:18:25;17.25;;;8.30;;
54193;SDS011;40102;50.906;6.972;2023-12-07T04:20:51;15.02;;;7.95;;
54193;SDS011;40102;50.906;6.972;2023-12-07T04:23:17;15.57;;;7.22;;
54193;SDS011;40102;50.906;6.972;2023-12-07T04:25:42;17.73;;;7.78;;
54193;SDS011;40102;50.906;6.972;2023-12-07T04:28:07;18.00;;;8.18;;
54193;SDS011;40102;50.906;6.972;2023-12-07T04:30:33;17.17;;;7.85;;
54193;SDS011;40102;50.906;6.972;2023-12-07T04:32:58;16.67;;;7.20;;
54193;SDS011;40102;50.906;6.972;2023-12-07T04:35:24;14.93;;;6.80;;
54193;SDS011;40102;50.906;6.972;2023-12-07T04:37:49;15.13;;;7.53;;
54193;SDS011;40102;50.906;6.972;2023-12-07T04:40:14;14.00;;;7.50;;
54193;SDS011;40102;50.906;6.972;2023-12-07T04:42:40;13.70;;;7.60;;
54193;SDS011;40102;50.906;6.972;2023-12-07T04:45:06;14.35;;;6.93;;
54193;SDS011;40102;50.906;6.972;2023-12-07T04:47:32;12.05;;;6.75;;
54193;SDS011;40102;50.906;6.972;2023-12-07T04:49:58;10.70;;;5.88;;
54193;SDS011;40102;50.906;6.972;2023-12-07T04:52:23;11.30;;;6.22;;
54193;SDS011;40102;50.906;6.972;2023-12-07T04:54:49;16.75;;;7.03;;
54193;SDS011;40102;50.906;6.972;2023-12-07T04:57:14;14.05;;;7.10;;
54193;SDS011;40102;50.906;6.972;2023-12-07T04:59:39;16.10;;;6.90;;
54193;SDS011;40102;50.906;6.972;2023-12-07T05:02:05;13.27;;;6.93;;
54193;SDS011;40102;50.906;6.972;2023-12-07T05:04:31;12.38;;;6.72;;
54193;SDS011;40102;50.906;6.972;2023-12-07T05:06:58;12.52;;;6.85;;
54193;SDS011;40102;50.906;6.972;2023-12-07T05:09:23;16.85;;;7.57;;
54193;SDS011;40102;50.906;6.972;2023-12-07T05:11:49;13.07;;;6.75;;
54193;SDS011;40102;50.906;6.972;2023-12-07T05:14:15;14.70;;;7.07;;
54193;SDS011;40102;50.906;6.972;2023-12-07T05:16:40;16.35;;;7.30;;
54193;SDS011;40102;50.906;6.972;2023-12-07T05:19:05;13.02;;;6.78;;
54193;SDS011;40102;50.906;6.972;2023-12-07T05:21:31;14.95;;;6.70;;
54193;SDS011;40102;50.906;6.972;2023-12-07T05:23:57;11.85;;;6.32;;
54193;SDS011;40102;50.906;6.972;2023-12-07T05:26:22;12.00;;;6.22;;
54193;SDS011;40102;50.906;6.972;2023-12-07T05:28:47;13.55;;;6.97;;
54193;SDS011;40102;50.906;6.972;2023-12-07T05:31:16;12.88;;;6.30;;
54193;SDS011;40102;50.906;6.972;2023-12-07T05:33:42;12.30;;;6.47;;
54193;SDS011;40102;50.906;6.972;2023-12-07T05:36:08;11.40;;;5.50;;
54193;SDS011;40102;50.906;6.972;2023-12-07T05:38:33;10.68;;;6.13;;
54193;SDS011;40102;50.906;6.972;2023-12-07T05:40:59;13.23;;;6.07;;
54193;SDS011;40102;50.906;6.972;2023-12-07T05:43:24;12.93;;;5.80;;
54193;SDS011;40102;50.906;6.972;2023-12-07T05:45:50;9.02;;;4.85;;
54193;SDS011;40102;50.906;6.972;2023-12-07T05:48:17;7.55;;;4.47;;
54193;SDS011;40102;50.906;6.972;2023-12-07T05:50:43;9.25;;;4.50;;
54193;SDS011;40102;50.906;6.972;2023-12-07T05:53:08;10.70;;;6.00;;
54193;SDS011;40102;50.906;6.972;2023-12-07T05:55:34;12.63;;;5.55;;
54193;SDS011;40102;50.906;6.972;2023-12-07T05:57:59;12.52;;;6.07;;
54193;SDS011;40102;50.906;6.972;2023-12-07T06:00:26;10.95;;;5.88;;
54193;SDS011;40102;50.906;6.972;2023-12-07T06:02:52;9.27;;;5.75;;
54193;SDS011;40102;50.906;6.972;2023-12-07T06:05:17;12.50;;;5.63;;
54193;SDS011;40102;50.906;6.972;2023-12-07T06:07:43;13.32;;;6.43;;
54193;SDS011;40102;50.906;6.972;2023-12-07T06:10:08;11.15;;;6.55;;
54193;SDS011;40102;50.906;6.972;2023-12-07T06:12:34;12.30;;;6.60;;
54193;SDS011;40102;50.906;6.972;2023-12-07T06:14:59;13.63;;;5.88;;
54193;SDS011;40102;50.906;6.972;2023-12-07T06:17:25;13.82;;;6.35;;
54193;SDS011;40102;50.906;6.972;2023-12-07T06:19:51;15.18;;;7.07;;
54193;SDS011;40102;50.906;6.972;2023-12-07T06:22:16;14.23;;;6.10;;
54193;SDS011;40102;50.906;6.972;2023-12-07T06:24:41;15.20;;;6.72;;
54193;SDS011;40102;50.906;6.972;2023-12-07T06:27:07;14.10;;;6.18;;
54193;SDS011;40102;50.906;6.972;2023-12-07T06:29:32;14.75;;;6.95;;
54193;SDS011;40102;50.906;6.972;2023-12-07T06:31:58;12.85;;;6.47;;
54193;SDS011;40102;50.906;6.972;2023-12-07T06:34:23;14.13;;;6.78;;
54193;SDS011;40102;50.906;6.972;2023-12-07T06:36:48;13.38;;;6.65;;
54193;SDS011;40102;50.906;6.972;2023-12-07T06:39:14;17.23;;;6.63;;
54193;SDS011;40102;50.906;6.972;2023-12-07T06:41:39;16.83;;;6.97;;
54193;SDS011;40102;50.906;6.972;2023-12-07T06:44:11;13.35;;;6.78;;
54193;SDS011;40102;50.906;6.972;2023-12-07T06:46:36;14.65;;;6.85;;
54193;SDS011;40102;50.906;6.972;2023-12-07T06:49:02;14.45;;;6.70;;
54193;SDS011;40102;50.906;6.972;2023-12-07T06:51:27;18.80;;;7.20;;
54193;SDS011;40102;50.906;6.972;2023-12-07T06:53:52;13.15;;;6.45;;
54193;SDS011;40102;50.906;6.972;2023-12-07T06:56:18;15.05;;;7.57;;
54193;SDS011;40102;50.906;6.972;2023-12-07T06:58:43;12.57;;;6.30;;
54193;SDS011;40102;50.906;6.972;2023-12-07T07:01:09;15.73;;;6.80;;
54193;SDS011;40102;50.906;6.972;2023-12-07T07:03:34;14.98;;;7.88;;
54193;SDS011;40102;50.906;6.972;2023-12-07T07:06:00;15.98;;;7.30;;
54193;SDS011;40102;50.906;6.972;2023-12-07T07:08:26;14.73;;;7.32;;
54193;SDS011;40102;50.906;6.972;2023-12-07T07:10:51;13.50;;;6.43;;
54193;SDS011;40102;50.906;6.972;2023-12-07T07:13:17;12.57;;;6.68;;
54193;SDS011;40102;50.906;6.972;2023-12-07T07:15:44;13.35;;;7.10;;
54193;SDS011;40102;50.906;6.972;2023-12-07T07:18:10;15.20;;;7.00;;
54193;SDS011;40102;50.906;6.972;2023-12-07T07:20:35;14.60;;;6.88;;
54193;SDS011;40102;50.906;6.972;2023-12-07T07:23:00;14.93;;;7.53;;
54193;SDS011;40102;50.906;6.972;2023-12-07T07:25:26;14.75;;;6.75;;
54193;SDS011;40102;50.906;6.972;2023-12-07T07:27:51;14.20;;;6.80;;
54193;SDS011;40102;50.906;6.972;2023-12-07T07:30:19;19.95;;;7.55;;
54193;SDS011;40102;50.906;6.972;2023-12-07T07:32:45;13.60;;;6.68;;
54193;SDS011;40102;50.906;6.972;2023-12-07T07:35:10;16.80;;;7.47;;
54193;SDS011;40102;50.906;6.972;2023-12-07T07:37:37;13.75;;;6.95;;
54193;SDS011;40102;50.906;6.972;2023-12-07T07:40:03;16.45;;;7.47;;
54193;SDS011;40102;50.906;6.972;2023-12-07T07:42:32;15.85;;;7.65;;
54193;SDS011;40102;50.906;6.972;2023-12-07T07:44:57;14.68;;;7.55;;
54193;SDS011;40102;50.906;6.972;2023-12-07T07:47:23;11.60;;;6.93;;
54193;SDS011;40102;50.906;6.972;2023-12-07T07:49:48;17.88;;;7.95;;
54193;SDS011;40102;50.906;6.972;2023-12-07T07:52:14;16.83;;;6.55;;
54193;SDS011;40102;50.906;6.972;2023-12-07T07:54:39;17.67;;;7.47;;
54193;SDS011;40102;50.906;6.972;2023-12-07T07:57:05;14.75;;;7.82;;
54193;SDS011;40102;50.906;6.972;2023-12-07T07:59:30;15.93;;;6.88;;
54193;SDS011;40102;50.906;6.972;2023-12-07T08:01:56;15.65;;;7.40;;
54193;SDS011;40102;50.906;6.972;2023-12-07T08:04:22;15.00;;;6.15;;
54193;SDS011;40102;50.906;6.972;2023-12-07T08:06:47;13.70;;;6.55;;
54193;SDS011;40102;50.906;6.972;2023-12-07T08:09:13;16.17;;;7.50;;
54193;SDS011;40102;50.906;6.972;2023-12-07T08:11:39;16.83;;;7.45;;
54193;SDS011;40102;50.906;6.972;2023-12-07T08:14:05;18.55;;;7.07;;
54193;SDS011;40102;50.906;6.972;2023-12-07T08:16:30;13.52;;;7.25;;
54193;SDS011;40102;50.906;6.972;2023-12-07T08:18:56;16.35;;;7.15;;
54193;SDS011;40102;50.906;6.972;2023-12-07T08:21:23;15.38;;;7.20;;
54193;SDS011;40102;50.906;6.972;2023-12-07T08:23:50;13.27;;;7.43;;
54193;SDS011;40102;50.906;6.972;2023-12-07T08:26:16;16.05;;;7.40;;
54193;SDS011;40102;50.906;6.972;2023-12-07T08:28:42;14.73;;;7.80;;
54193;SDS011;40102;50.906;6.972;2023-12-07T08:31:08;19.60;;;8.38;;
54193;SDS011;40102;50.906;6.972;2023-12-07T08:33:33;16.52;;;6.68;;
54193;SDS011;40102;50.906;6.972;2023-12-07T08:36:04;17.52;;;7.65;;
54193;SDS011;40102;50.906;6.972;2023-12-07T08:38:31;15.65;;;7.63;;
54193;SDS011;40102;50.906;6.972;2023-12-07T08:40:56;17.75;;;8.18;;
54193;SDS011;40102;50.906;6.972;2023-12-07T08:43:23;19.30;;;8.18;;
54193;SDS011;40102;50.906;6.972;2023-12-07T08:45:52;17.92;;;8.38;;
54193;SDS011;40102;50.906;6.972;2023-12-07T08:48:20;16.13;;;8.85;;
54193;SDS011;40102;50.906;6.972;2023-12-07T08:50:46;17.23;;;7.40;;
54193;SDS011;40102;50.906;6.972;2023-12-07T08:53:11;16.33;;;7.60;;
54193;SDS011;40102;50.906;6.972;2023-12-07T08:55:37;18.13;;;8.93;;
54193;SDS011;40102;50.906;6.972;2023-12-07T08:58:02;19.20;;;8.50;;
54193;SDS011;40102;50.906;6.972;2023-12-07T09:00:30;20.13;;;9.05;;
54193;SDS011;40102;50.906;6.972;2023-12-07T09:02:56;16.85;;;8.00;;
54193;SDS011;40102;50.906;6.972;2023-12-07T09:05:22;16.75;;;8.63;;
54193;SDS011;40102;50.906;6.972;2023-12-07T09:07:50;19.45;;;8.45;;
54193;SDS011;40102;50.906;6.972;2023-12-07T09:10:15;17.88;;;8.90;;
54193;SDS011;40102;50.906;6.972;2023-12-07T09:12:41;16.25;;;7.93;;
54193;SDS011;40102;50.906;6.972;2023-12-07T09:15:06;15.38;;;8.27;;
54193;SDS011;40102;50.906;6.972;2023-12-07T09:17:32;19.65;;;8.52;;
54193;SDS011;40102;50.906;6.972;2023-12-07T09:19:58;17.48;;;8.23;;
54193;SDS011;40102;50.906;6.972;2023-12-07T09:22:24;17.15;;;7.85;;
54193;SDS011;40102;50.906;6.972;2023-12-07T09:24:50;16.08;;;8.27;;
54193;SDS011;40102;50.906;6.972;2023-12-07T09:27:15;18.95;;;8.60;;
54193;SDS011;40102;50.906;6.972;2023-12-07T09:29:41;19.65;;;8.68;;
54193;SDS011;40102;50.906;6.972;2023-12-07T09:32:09;17.35;;;8.15;;
54193;SDS011;40102;50.906;6.972;2023-12-07T09:34:34;18.65;;;8.73;;
54193;SDS011;40102;50.906;6.972;2023-12-07T09:37:07;17.67;;;8.10;;
54193;SDS011;40102;50.906;6.972;2023-12-07T09:39:33;18.92;;;8.75;;
54193;SDS011;40102;50.906;6.972;2023-12-07T09:41:59;17.20;;;8.15;;
54193;SDS011;40102;50.906;6.972;2023-12-07T09:44:25;17.40;;;8.23;;
54193;SDS011;40102;50.906;6.972;2023-12-07T09:46:50;16.80;;;7.80;;
54193;SDS011;40102;50.906;6.972;2023-12-07T09:49:16;13.52;;;7.40;;
54193;SDS011;40102;50.906;6.972;2023-12-07T09:51:45;18.05;;;8.38;;
54193;SDS011;40102;50.906;6.972;2023-12-07T09:54:11;16.65;;;7.55;;
54193;SDS011;40102;50.906;6.972;2023-12-07T09:56:37;21.58;;;9.27;;
54193;SDS011;40102;50.906;6.972;2023-12-07T09:59:03;16.15;;;8.60;;
54193;SDS011;40102;50.906;6.972;2023-12-07T10:01:29;17.02;;;8.00;;
54193;SDS011;40102;50.906;6.972;2023-12-07T10:06:51;19.02;;;8.52;;
54193;SDS011;40102;50.906;6.972;2023-12-07T10:09:17;17.77;;;8.55;;
54193;SDS011;40102;50.906;6.972;2023-12-07T10:11:46;16.83;;;8.05;;
54193;SDS011;40102;50.906;6.972;2023-12-07T10:14:12;15.65;;;7.75;;
54193;SDS011;40102;50.906;6.972;2023-12-07T10:16:38;16.40;;;8.20;;
54193;SDS011;40102;50.906;6.972;2023-12-07T10:19:13;18.50;;;8.55;;
54193;SDS011;40102;50.906;6.972;2023-12-07T10:21:42;13.93;;;6.82;;
54193;SDS011;40102;50.906;6.972;2023-12-07T10:24:08;15.52;;;7.47;;
54193;SDS011;40102;50.906;6.972;2023-12-07T10:26:34;13.95;;;7.63;;
54193;SDS011;40102;50.906;6.972;2023-12-07T10:29:01;13.65;;;6.90;;
54193;SDS011;40102;50.906;6.972;2023-12-07T10:31:30;15.82;;;7.35;;
54193;SDS011;40102;50.906;6.972;2023-12-07T10:33:56;17.27;;;7.43;;
54193;SDS011;40102;50.906;6.972;2023-12-07T10:36:21;16.25;;;7.82;;
54193;SDS011;40102;50.906;6.972;2023-12-07T10:38:47;15.55;;;7.35;;
54193;SDS011;40102;50.906;6.972;2023-12-07T10:41:16;14.88;;;7.50;;
54193;SDS011;40102;50.906;6.972;2023-12-07T10:43:44;15.00;;;7.45;;
54193;SDS011;40102;50.906;6.972;2023-12-07T10:46:17;15.13;;;7.28;;
54193;SDS011;40102;50.906;6.972;2023-12-07T10:48:45;14.63;;;7.45;;
54193;SDS011;40102;50.906;6.972;2023-12-07T10:51:14;14.75;;;7.03;;
54193;SDS011;40102;50.906;6.972;2023-12-07T10:53:47;14.98;;;7.50;;
54193;SDS011;40102;50.906;6.972;2023-12-07T10:56:16;21.38;;;7.25;;
54193;SDS011;40102;50.906;6.972;2023-12-07T10:58:53;13.50;;;6.85;;
54193;SDS011;40102;50.906;6.972;2023-12-07T11:01:20;14.10;;;6.80;;
54193;SDS011;40102;50.906;6.972;2023-12-07T11:03:49;13.27;;;6.75;;
54193;SDS011;40102;50.906;6.972;2023-12-07T11:06:15;12.82;;;6.63;;
54193;SDS011;40102;50.906;6.972;2023-12-07T11:08:43;13.32;;;7.10;;
54193;SDS011;40102;50.906;6.972;2023-12-07T11:11:21;15.77;;;6.63;;
54193;SDS011;40102;50.906;6.972;2023-12-07T11:13:59;14.35;;;6.80;;
54193;SDS011;40102;50.906;6.972;2023-12-07T11:16:31;13.00;;;6.05;;
54193;SDS011;40102;50.906;6.972;2023-12-07T11:19:00;11.48;;;6.03;;
54193;SDS011;40102;50.906;6.972;2023-12-07T11:21:27;12.50;;;6.55;;
54193;SDS011;40102;50.906;6.972;2023-12-07T11:23:53;11.48;;;6.13;;
54193;SDS011;40102;50.906;6.972;2023-12-07T11:26:22;13.52;;;6.65;;
54193;SDS011;40102;50.906;6.972;2023-12-07T11:28:49;13.65;;;5.80;;
54193;SDS011;40102;50.906;6.972;2023-12-07T11:31:14;11.20;;;6.00;;
54193;SDS011;40102;50.906;6.972;2023-12-07T11:33:41;14.30;;;6.35;;
54193;SDS011;40102;50.906;6.972;2023-12-07T11:36:08;14.80;;;6.75;;
54193;SDS011;40102;50.906;6.972;2023-12-07T11:38:37;13.93;;;6.30;;
54193;SDS011;40102;50.906;6.972;2023-12-07T11:41:04;12.15;;;6.05;;
54193;SDS011;40102;50.906;6.972;2023-12-07T11:45:58;12.85;;;6.65;;
54193;SDS011;40102;50.906;6.972;2023-12-07T11:48:23;14.98;;;7.00;;
54193;SDS011;40102;50.906;6.972;2023-12-07T11:50:53;10.18;;;6.22;;
54193;SDS011;40102;50.906;6.972;2023-12-07T11:53:22;11.75;;;6.18;;
54193;SDS011;40102;50.906;6.972;2023-12-07T11:55:49;14.27;;;6.72;;
54193;SDS011;40102;50.906;6.972;2023-12-07T11:58:14;13.75;;;6.95;;
54193;SDS011;40102;50.906;6.972;2023-12-07T12:00:40;13.38;;;6.20;;
54193;SDS011;40102;50.906;6.972;2023-12-07T12:03:05;12.23;;;7.25;;
54193;SDS011;40102;50.906;6.972;2023-12-07T12:05:31;12.10;;;6.00;;
54193;SDS011;40102;50.906;6.972;2023-12-07T12:07:56;11.43;;;6.05;;
54193;SDS011;40102;50.906;6.972;2023-12-07T12:10:22;11.95;;;6.10;;
54193;SDS011;40102;50.906;6.972;2023-12-07T12:12:50;16.13;;;6.07;;
54193;SDS011;40102;50.906;6.972;2023-12-07T12:15:16;13.93;;;5.88;;
54193;SDS011;40102;50.906;6.972;2023-12-07T12:17:41;14.25;;;6.32;;
54193;SDS011;40102;50.906;6.972;2023-12-07T12:20:08;11.07;;;6.00;;
54193;SDS011;40102;50.906;6.972;2023-12-07T12:22:38;10.65;;;6.18;;
54193;SDS011;40102;50.906;6.972;2023-12-07T12:25:03;14.82;;;5.80;;
54193;SDS011;40102;50.906;6.972;2023-12-07T12:27:29;13.45;;;6.32;;
54193;SDS011;40102;50.906;6.972;2023-12-07T12:29:55;10.57;;;6.13;;
54193;SDS011;40102;50.906;6.972;2023-12-07T12:32:21;11.32;;;5.68;;
54193;SDS011;40102;50.906;6.972;2023-12-07T12:34:50;11.38;;;6.13;;
54193;SDS011;40102;50.906;6.972;2023-12-07T12:37:16;10.95;;;5.97;;
54193;SDS011;40102;50.906;6.972;2023-12-07T12:39:41;11.15;;;5.60;;
54193;SDS011;40102;50.906;6.972;2023-12-07T12:42:07;11.70;;;5.70;;
54193;SDS011;40102;50.906;6.972;2023-12-07T12:44:32;8.70;;;5.07;;
54193;SDS011;40102;50.906;6.972;2023-12-07T12:46:58;9.95;;;5.15;;
54193;SDS011;40102;50.906;6.972;2023-12-07T12:49:34;12.57;;;5.18;;
54193;SDS011;40102;50.906;6.972;2023-12-07T12:52:00;12.13;;;5.68;;
54193;SDS011;40102;50.906;6.972;2023-12-07T12:54:30;11.80;;;5.00;;
54193;SDS011;40102;50.906;6.972;2023-12-07T12:56:57;11.10;;;5.40;;
54193;SDS011;40102;50.906;6.972;2023-12-07T12:59:23;13.98;;;5.47;;
54193;SDS011;40102;50.906;6.972;2023-12-07T13:01:50;10.60;;;4.47;;
54193;SDS011;40102;50.906;6.972;2023-12-07T13:04:16;10.48;;;5.28;;
54193;SDS011;40102;50.906;6.972;2023-12-07T13:06:41;11.18;;;5.18;;
54193;SDS011;40102;50.906;6.972;2023-12-07T13:09:06;9.07;;;4.70;;
54193;SDS011;40102;50.906;6.972;2023-12-07T13:11:32;11.40;;;4.97;;
54193;SDS011;40102;50.906;6.972;2023-12-07T13:13:58;8.60;;;4.72;;
54193;SDS011;40102;50.906;6.972;2023-12-07T13:16:24;8.15;;;4.53;;
54193;SDS011;40102;50.906;6.972;2023-12-07T13:18:49;10.27;;;5.22;;
54193;SDS011;40102;50.906;6.972;2023-12-07T13:21:14;11.75;;;5.78;;
54193;SDS011;40102;50.906;6.972;2023-12-07T13:23:40;9.32;;;5.00;;
54193;SDS011;40102;50.906;6.972;2023-12-07T13:26:06;10.90;;;5.72;;
54193;SDS011;40102;50.906;6.972;2023-12-07T13:28:31;8.00;;;4.55;;
54193;SDS011;40102;50.906;6.972;2023-12-07T13:30:57;9.70;;;4.60;;
54193;SDS011;40102;50.906;6.972;2023-12-07T13:33:23;8.57;;;4.80;;
54193;SDS011;40102;50.906;6.972;2023-12-07T13:35:48;8.77;;;5.07;;
54193;SDS011;40102;50.906;6.972;2023-12-07T13:38:14;9.70;;;4.63;;
54193;SDS011;40102;50.906;6.972;2023-12-07T13:40:39;10.82;;;4.93;;
54193;SDS011;40102;50.906;6.972;2023-12-07T13:43:05;7.90;;;4.70;;
54193;SDS011;40102;50.906;6.972;2023-12-07T13:45:31;8.27;;;4.63;;
54193;SDS011;40102;50.906;6.972;2023-12-07T13:47:57;10.75;;;5.32;;
54193;SDS011;40102;50.906;6.972;2023-12-07T13:50:23;10.35;;;5.00;;
54193;SDS011;40102;50.906;6.972;2023-12-07T13:52:49;9.27;;;5.00;;
54193;SDS011;40102;50.906;6.972;2023-12-07T13:55:14;12.30;;;5.53;;
54193;SDS011;40102;50.906;6.972;2023-12-07T13:57:40;8.43;;;4.45;;
54193;SDS011;40102;50.906;6.972;2023-12-07T14:00:05;10.38;;;5.20;;
54193;SDS011;40102;50.906;6.972;2023-12-07T14:02:31;11.18;;;5.50;;
54193;SDS011;40102;50.906;6.972;2023-12-07T14:04:56;10.38;;;5.60;;
54193;SDS011;40102;50.906;6.972;2023-12-07T14:07:22;11.90;;;4.70;;
54193;SDS011;40102;50.906;6.972;2023-12-07T14:09:49;16.42;;;5.63;;
54193;SDS011;40102;50.906;6.972;2023-12-07T14:12:16;14.45;;;5.60;;
54193;SDS011;40102;50.906;6.972;2023-12-07T14:14:42;9.68;;;4.97;;
54193;SDS011;40102;50.906;6.972;2023-12-07T14:17:09;9.85;;;5.43;;
54193;SDS011;40102;50.906;6.972;2023-12-07T14:19:35;10.93;;;5.20;;
54193;SDS011;40102;50.906;6.972;2023-12-07T14:22:01;8.43;;;4.97;;
54193;SDS011;40102;50.906;6.972;2023-12-07T14:27:02;11.75;;;4.95;;
54193;SDS011;40102;50.906;6.972;2023-12-07T14:29:29;9.10;;;4.80;;
54193;SDS011;40102;50.906;6.972;2023-12-07T14:31:57;10.90;;;4.88;;
54193;SDS011;40102;50.906;6.972;2023-12-07T14:34:24;11.32;;;4.97;;
54193;SDS011;40102;50.906;6.972;2023-12-07T14:36:51;10.40;;;5.20;;
54193;SDS011;40102;50.906;6.972;2023-12-07T14:39:17;9.93;;;4.90;;